Amsterdam, Missouri
Current Conditions -  °F | °C
As of 4:53 PM on Friday 31 Oct 2014 (Local Time) from KOJC Reporting Station
Clear Clear  
Wind Chill: 40°   Ceiling: Unl
Heat Index: 46°   Visibility: 10mi
Dew Point: 15°   Wind: 15mph
Humidity: 29%   Direction: 360°N
Pressure: 30.43"   Gusts: NA
Location:  38.35°N, 94.59°W
Report Text: KOJC 312153Z 36013KT 10SM CLR 08/M09 A3043 RMK AO2 SLP308 T00781094
Loading
Personal Weather Stations






























Interactive Weather Map
Tropical Storm Tracking
New forecast layout! Learn more

10-Day Weather Forecast

Advertisements
Track Severe Weather on mobile